Time;durP1;ratioP1;P1;durP2;ratioP2;P2;SDS_P1;SDS_P2;PMS_P1;PMS_P2;Temp;Humidity;BMP_temperature;BMP_pressure;BME280_temperature;BME280_humidity;BME280_pressure;Samples;Min_cycle;Max_cycle;Signal;HPM_P1;HPM_P2
2023/03/16 00:00:01;;;;;;;9.00;6.80;;;;;;;;;;79642;264;3031965;-38
2023/03/16 00:02:37;;;;;;;9.60;6.80;;;;;;;;;;79593;264;3028594;-38
2023/03/16 00:05:19;;;;;;;10.10;7.10;;;;;;;;;;79633;264;3027208;-38
2023/03/16 00:07:55;;;;;;;9.30;6.80;;;;;;;;;;79624;264;3031330;-38
2023/03/16 00:10:31;;;;;;;9.70;7.00;;;;;;;;;;79636;264;3032031;-37
2023/03/16 00:13:07;;;;;;;9.20;6.70;;;;;;;;;;79577;264;3028821;-38
2023/03/16 00:15:52;;;;;;;9.60;6.80;;;;;;;;;;80348;264;3011461;-36
2023/03/16 00:18:37;;;;;;;8.90;6.60;;;;;;;;;;79636;264;3027337;-37
2023/03/16 00:21:18;;;;;;;8.50;6.50;;;;;;;;;;79588;264;3030897;-38
2023/03/16 00:23:56;;;;;;;9.10;6.60;;;;;;;;;;79615;264;3031954;-37
2023/03/16 00:26:32;;;;;;;9.40;6.60;;;;;;;;;;79651;264;3028450;-38
2023/03/16 00:29:11;;;;;;;9.40;6.70;;;;;;;;;;80364;264;3011931;-38
2023/03/16 00:31:51;;;;;;;9.00;6.70;;;;;;;;;;79604;264;3027766;-38
2023/03/16 00:34:33;;;;;;;8.90;6.80;;;;;;;;;;79659;264;3029895;-38
2023/03/16 00:37:08;;;;;;;9.40;7.20;;;;;;;;;;79637;253;3031192;-38
2023/03/16 00:39:48;;;;;;;9.80;7.10;;;;;;;;;;80390;264;3011482;-38
2023/03/16 00:42:26;;;;;;;10.30;7.10;;;;;;;;;;79607;264;3028763;-38
2023/03/16 00:45:04;;;;;;;9.60;7.10;;;;;;;;;;79658;264;3027527;-38
2023/03/16 00:47:42;;;;;;;9.90;7.00;;;;;;;;;;79647;264;3030823;-38
2023/03/16 00:50:21;;;;;;;9.60;7.20;;;;;;;;;;79617;264;3031371;-38
2023/03/16 00:52:56;;;;;;;9.60;7.00;;;;;;;;;;79580;264;3028354;-38
2023/03/16 00:55:33;;;;;;;9.50;7.10;;;;;;;;;;79626;264;3027310;-38
2023/03/16 00:58:13;;;;;;;10.30;7.40;;;;;;;;;;80368;264;3013389;-38
2023/03/16 01:00:50;;;;;;;9.30;7.10;;;;;;;;;;79642;264;3031061;-38
2023/03/16 01:03:28;;;;;;;9.30;7.10;;;;;;;;;;79616;264;3031307;-38
2023/03/16 01:06:09;;;;;;;9.90;7.50;;;;;;;;;;79671;264;3028387;-38
2023/03/16 01:08:45;;;;;;;9.60;7.20;;;;;;;;;;79644;264;3029625;-38
2023/03/16 01:11:23;;;;;;;9.90;7.30;;;;;;;;;;79652;264;3031129;-38
2023/03/16 01:14:01;;;;;;;11.40;7.00;;;;;;;;;;79598;264;3031100;-38
2023/03/16 01:16:38;;;;;;;9.20;6.90;;;;;;;;;;79645;260;3028655;-38
2023/03/16 01:19:13;;;;;;;9.20;7.10;;;;;;;;;;79625;264;3027495;-38
2023/03/16 01:21:51;;;;;;;8.80;6.60;;;;;;;;;;80375;264;3011131;-38
2023/03/16 01:24:29;;;;;;;9.40;7.00;;;;;;;;;;79622;264;3031219;-38
2023/03/16 01:27:08;;;;;;;9.80;7.00;;;;;;;;;;79657;264;3031281;-38
2023/03/16 01:29:44;;;;;;;9.80;7.20;;;;;;;;;;79694;264;3028531;-38
2023/03/16 01:32:22;;;;;;;9.60;7.10;;;;;;;;;;79629;264;3027193;-39
2023/03/16 01:34:58;;;;;;;9.80;6.80;;;;;;;;;;79600;264;3036799;-38
2023/03/16 01:37:34;;;;;;;10.10;7.30;;;;;;;;;;79653;264;3034634;-38
2023/03/16 01:40:14;;;;;;;9.30;6.90;;;;;;;;;;79662;264;3030726;-38
2023/03/16 01:43:01;;;;;;;9.20;6.90;;;;;;;;;;79623;264;3027544;-38
2023/03/16 01:46:16;;;;;;;9.10;6.60;;;;;;;;;;79665;316;3039790;-38
2023/03/16 01:49:04;;;;;;;8.80;6.80;;;;;;;;;;79642;264;3031457;-38
2023/03/16 01:51:50;;;;;;;10.00;7.20;;;;;;;;;;79656;264;3027978;-38
2023/03/16 01:54:31;;;;;;;9.50;7.10;;;;;;;;;;79283;264;3027844;-38
2023/03/16 01:57:10;;;;;;;8.90;6.80;;;;;;;;;;79664;264;3032077;-38
2023/03/16 01:59:52;;;;;;;8.60;6.70;;;;;;;;;;79631;264;3032052;-38
2023/03/16 02:02:32;;;;;;;10.20;7.00;;;;;;;;;;79632;264;3028100;-38
2023/03/16 02:05:15;;;;;;;9.60;7.00;;;;;;;;;;79593;253;3027634;-38
2023/03/16 02:07:57;;;;;;;9.60;6.60;;;;;;;;;;79628;264;3031015;-38
2023/03/16 02:10:35;;;;;;;8.80;6.60;;;;;;;;;;79640;264;3031185;-38
2023/03/16 02:13:12;;;;;;;10.10;6.60;;;;;;;;;;79642;264;3029127;-38
2023/03/16 02:15:49;;;;;;;10.10;7.00;;;;;;;;;;80330;264;3011470;-38
2023/03/16 02:18:25;;;;;;;9.00;6.60;;;;;;;;;;79644;264;3027811;-38
2023/03/16 02:21:09;;;;;;;9.20;6.80;;;;;;;;;;79659;253;3030712;-38
2023/03/16 02:23:45;;;;;;;;;;;;;;;;;;79651;264;3031610;-38
2023/03/16 02:26:31;;;;;;;8.90;6.30;;;;;;;;;;79585;264;3035450;-38
2023/03/16 02:29:19;;;;;;;9.30;6.60;;;;;;;;;;79611;264;3027924;-38
2023/03/16 02:31:58;;;;;;;9.10;6.90;;;;;;;;;;79622;264;3030873;-38
2023/03/16 02:34:38;;;;;;;9.90;6.50;;;;;;;;;;79616;264;3031358;-38
2023/03/16 02:37:13;;;;;;;9.40;6.70;;;;;;;;;;79654;269;3028181;-38
2023/03/16 02:39:53;;;;;;;9.10;6.60;;;;;;;;;;80351;264;3012688;-38
2023/03/16 02:42:37;;;;;;;9.30;6.30;;;;;;;;;;79637;264;3027726;-38
2023/03/16 02:45:13;;;;;;;9.00;6.70;;;;;;;;;;79587;264;3030589;-38
2023/03/16 02:47:52;;;;;;;9.80;6.70;;;;;;;;;;79647;264;3032026;-38
2023/03/16 02:50:29;;;;;;;9.80;6.40;;;;;;;;;;79662;264;3028723;-38
2023/03/16 02:53:07;;;;;;;8.90;6.20;;;;;;;;;;79668;264;3027495;-37
2023/03/16 02:55:43;;;;;;;7.60;5.90;;;;;;;;;;79644;264;3031123;-38
2023/03/16 02:58:20;;;;;;;8.10;5.80;;;;;;;;;;79657;264;3031314;-38
2023/03/16 03:00:56;;;;;;;8.30;6.00;;;;;;;;;;79629;264;3028450;-37
2023/03/16 03:03:34;;;;;;;8.30;6.20;;;;;;;;;;79635;264;3027725;-37
2023/03/16 03:06:11;;;;;;;9.30;6.60;;;;;;;;;;79625;264;3030758;-37
2023/03/16 03:08:47;;;;;;;8.10;5.90;;;;;;;;;;79662;264;3031951;-37
2023/03/16 03:11:23;;;;;;;9.40;6.70;;;;;;;;;;79671;264;3029084;-38
2023/03/16 03:14:01;;;;;;;9.00;6.30;;;;;;;;;;79673;264;3027676;-38
2023/03/16 03:16:45;;;;;;;8.80;5.90;;;;;;;;;;79626;264;3030876;-36
2023/03/16 03:19:22;;;;;;;9.10;5.90;;;;;;;;;;79647;264;3031255;-36
2023/03/16 03:21:59;;;;;;;8.20;5.60;;;;;;;;;;79651;264;3028349;-37
2023/03/16 03:24:40;;;;;;;9.10;6.20;;;;;;;;;;79660;280;3027989;-37
2023/03/16 03:27:15;;;;;;;8.60;6.10;;;;;;;;;;79648;264;3031283;-36
2023/03/16 03:29:51;;;;;;;9.60;6.50;;;;;;;;;;79657;264;3031997;-36
2023/03/16 03:32:28;;;;;;;8.80;6.00;;;;;;;;;;80384;264;3011321;-38
2023/03/16 03:35:11;;;;;;;8.70;5.80;;;;;;;;;;79642;264;3028099;-38
2023/03/16 03:37:53;;;;;;;9.50;6.50;;;;;;;;;;79653;264;3027870;-38
2023/03/16 03:40:30;;;;;;;8.60;6.20;;;;;;;;;;79656;264;3030753;-37
2023/03/16 03:43:10;;;;;;;8.90;6.10;;;;;;;;;;79646;264;3031119;-38
2023/03/16 03:45:48;;;;;;;7.70;5.80;;;;;;;;;;79578;264;3027950;-38
2023/03/16 03:48:26;;;;;;;8.10;6.00;;;;;;;;;;79645;264;3034007;-38
2023/03/16 03:51:05;;;;;;;9.20;6.20;;;;;;;;;;79629;264;3030825;-38
2023/03/16 03:53:42;;;;;;;8.60;5.60;;;;;;;;;;79636;264;3031582;-37
2023/03/16 03:56:21;;;;;;;8.70;6.20;;;;;;;;;;79616;264;3028702;-38
2023/03/16 03:58:59;;;;;;;8.60;6.10;;;;;;;;;;79643;264;3028482;-38
2023/03/16 04:01:35;;;;;;;8.10;6.00;;;;;;;;;;79674;264;3031922;-37
2023/03/16 04:04:14;;;;;;;8.20;5.80;;;;;;;;;;79659;264;3031921;-38
2023/03/16 04:06:52;;;;;;;9.40;6.30;;;;;;;;;;79589;264;3028933;-38
2023/03/16 04:09:28;;;;;;;9.60;6.60;;;;;;;;;;79654;264;3028237;-38
2023/03/16 04:12:13;;;;;;;8.50;6.50;;;;;;;;;;79643;264;3030600;-38
2023/03/16 04:14:49;;;;;;;9.20;6.10;;;;;;;;;;79646;264;3032029;-38
2023/03/16 04:17:26;;;;;;;8.30;6.00;;;;;;;;;;79609;253;3028915;-38
2023/03/16 04:20:06;;;;;;;8.30;6.10;;;;;;;;;;79620;264;3027346;-38
2023/03/16 04:22:44;;;;;;;9.80;6.40;;;;;;;;;;79643;264;3030666;-38
2023/03/16 04:25:21;;;;;;;8.10;6.10;;;;;;;;;;79625;264;3031411;-38
2023/03/16 04:27:56;;;;;;;8.60;5.90;;;;;;;;;;79636;264;3028302;-37
2023/03/16 04:30:34;;;;;;;8.60;6.20;;;;;;;;;;80349;264;3011530;-38
2023/03/16 04:33:13;;;;;;;8.40;6.30;;;;;;;;;;79563;264;3027866;-38
2023/03/16 04:35:52;;;;;;;8.20;6.00;;;;;;;;;;79578;264;3031163;-38
2023/03/16 04:38:28;;;;;;;10.30;6.30;;;;;;;;;;79623;264;3031878;-37
2023/03/16 04:41:06;;;;;;;8.50;6.10;;;;;;;;;;79648;264;3027978;-38
2023/03/16 04:43:42;;;;;;;8.70;5.60;;;;;;;;;;79665;264;3027336;-38
2023/03/16 04:46:18;;;;;;;8.70;6.10;;;;;;;;;;80375;264;3011303;-38
2023/03/16 04:48:57;;;;;;;8.10;5.60;;;;;;;;;;80300;264;3012733;-38
2023/03/16 04:51:32;;;;;;;8.80;6.20;;;;;;;;;;79625;264;3031357;-38
2023/03/16 04:54:08;;;;;;;8.90;6.40;;;;;;;;;;80350;264;3011466;-38
2023/03/16 04:56:43;;;;;;;8.70;6.00;;;;;;;;;;80362;264;3013206;-38
2023/03/16 04:59:18;;;;;;;8.60;5.60;;;;;;;;;;80328;264;3011534;-38
2023/03/16 05:01:54;;;;;;;8.90;5.80;;;;;;;;;;80397;264;3011576;-38
2023/03/16 05:04:29;;;;;;;9.70;6.10;;;;;;;;;;80353;264;3011589;-38
2023/03/16 05:07:04;;;;;;;8.20;5.70;;;;;;;;;;80365;264;3012672;-38
2023/03/16 05:09:42;;;;;;;9.30;6.10;;;;;;;;;;79584;264;3031716;-38
2023/03/16 05:12:30;;;;;;;7.80;5.50;;;;;;;;;;79609;264;3028155;-37
2023/03/16 05:15:08;;;;;;;8.50;6.00;;;;;;;;;;80345;264;3011990;-38
2023/03/16 05:17:43;;;;;;;8.40;5.20;;;;;;;;;;79626;264;3028025;-38
2023/03/16 05:20:21;;;;;;;8.80;6.00;;;;;;;;;;80363;264;3011273;-38
2023/03/16 05:22:56;;;;;;;7.70;5.60;;;;;;;;;;79624;264;3030504;-38
2023/03/16 05:25:31;;;;;;;9.00;5.90;;;;;;;;;;79653;264;3031741;-37
2023/03/16 05:28:07;;;;;;;8.80;6.10;;;;;;;;;;80342;264;3011569;-35
2023/03/16 05:30:43;;;;;;;8.40;5.70;;;;;;;;;;80388;264;3011713;-36
2023/03/16 05:33:21;;;;;;;9.50;5.80;;;;;;;;;;79655;264;3028784;-37
2023/03/16 05:35:56;;;;;;;8.40;5.80;;;;;;;;;;79614;264;3028022;-37
2023/03/16 05:38:31;;;;;;;8.70;5.50;;;;;;;;;;79588;264;3030575;-37
2023/03/16 05:41:13;;;;;;;8.80;6.00;;;;;;;;;;79641;264;3032040;-38
2023/03/16 05:43:49;;;;;;;9.20;6.00;;;;;;;;;;79646;264;3028907;-37
2023/03/16 05:46:24;;;;;;;7.70;5.60;;;;;;;;;;79640;264;3027938;-37
2023/03/16 05:49:00;;;;;;;9.30;5.70;;;;;;;;;;80318;264;3011370;-37
2023/03/16 05:51:35;;;;;;;8.20;5.40;;;;;;;;;;79600;264;3031234;-37
2023/03/16 05:54:10;;;;;;;9.20;6.10;;;;;;;;;;80343;264;3011749;-37
2023/03/16 05:56:46;;;;;;;9.10;5.60;;;;;;;;;;80338;264;3011419;-37
2023/03/16 05:59:21;;;;;;;9.20;5.80;;;;;;;;;;80337;264;3011540;-36
2023/03/16 06:01:57;;;;;;;8.90;5.60;;;;;;;;;;80409;264;3012506;-36
2023/03/16 06:04:33;;;;;;;8.60;6.10;;;;;;;;;;80396;264;3012908;-37
2023/03/16 06:07:12;;;;;;;9.30;5.70;;;;;;;;;;80394;264;3011611;-37
2023/03/16 06:09:47;;;;;;;9.40;6.10;;;;;;;;;;79622;264;3031983;-37
2023/03/16 06:12:25;;;;;;;8.90;5.90;;;;;;;;;;80392;264;3011612;-36
2023/03/16 06:15:06;;;;;;;9.40;6.30;;;;;;;;;;79654;264;3028837;-37
2023/03/16 06:17:44;;;;;;;9.30;6.20;;;;;;;;;;79679;264;3027545;-37
2023/03/16 06:20:23;;;;;;;8.90;6.00;;;;;;;;;;79644;264;3030880;-37
2023/03/16 06:23:00;;;;;;;9.00;6.20;;;;;;;;;;79634;264;3031831;-37
2023/03/16 06:25:39;;;;;;;8.70;6.00;;;;;;;;;;79870;264;3028667;-37
2023/03/16 06:28:17;;;;;;;8.70;5.80;;;;;;;;;;79644;264;3027144;-37
2023/03/16 06:30:54;;;;;;;9.20;6.20;;;;;;;;;;79636;264;3031368;-38
2023/03/16 06:33:31;;;;;;;9.60;5.80;;;;;;;;;;79665;264;3031764;-38
2023/03/16 06:36:10;;;;;;;8.90;6.10;;;;;;;;;;79676;264;3028397;-38
2023/03/16 06:38:48;;;;;;;8.20;5.80;;;;;;;;;;79657;264;3027466;-37
2023/03/16 06:41:26;;;;;;;8.90;6.20;;;;;;;;;;79640;264;3031270;-37
2023/03/16 06:44:06;;;;;;;9.80;6.10;;;;;;;;;;79636;264;3031740;-37
2023/03/16 06:46:43;;;;;;;8.50;5.50;;;;;;;;;;79626;264;3028666;-37
2023/03/16 06:49:19;;;;;;;9.00;5.90;;;;;;;;;;79676;264;3027044;-38
2023/03/16 06:51:57;;;;;;;8.40;5.80;;;;;;;;;;79644;274;3030944;-37
2023/03/16 06:54:36;;;;;;;8.20;6.00;;;;;;;;;;79674;264;3031186;-38
2023/03/16 06:57:14;;;;;;;7.90;5.70;;;;;;;;;;79623;264;3028095;-37
2023/03/16 06:59:50;;;;;;;8.90;6.20;;;;;;;;;;79652;264;3027489;-37
2023/03/16 07:02:34;;;;;;;7.90;5.70;;;;;;;;;;79668;264;3030800;-37
2023/03/16 07:05:13;;;;;;;9.00;6.00;;;;;;;;;;79658;264;3031429;-37
2023/03/16 07:07:54;;;;;;;8.20;5.90;;;;;;;;;;79607;264;3028856;-37
2023/03/16 07:10:33;;;;;;;9.00;5.90;;;;;;;;;;79612;264;3027490;-38
2023/03/16 07:13:13;;;;;;;9.00;5.90;;;;;;;;;;79676;264;3032123;-38
2023/03/16 07:16:05;;;;;;;8.90;6.10;;;;;;;;;;79595;253;3031791;-37
2023/03/16 07:18:43;;;;;;;8.80;5.80;;;;;;;;;;79658;264;3028351;-36
2023/03/16 07:21:25;;;;;;;8.60;5.90;;;;;;;;;;79662;264;3028353;-36
2023/03/16 07:24:24;;;;;;;;;;;;;;;;;;79695;264;3031362;-36
2023/03/16 07:27:05;;;;;;;9.00;6.30;;;;;;;;;;79647;264;3031401;-36
2023/03/16 07:30:03;;;;;;;9.20;5.90;;;;;;;;;;79657;264;3028330;-36
2023/03/16 07:32:43;;;;;;;9.20;6.00;;;;;;;;;;79645;264;3027357;-36
2023/03/16 07:35:29;;;;;;;8.70;5.60;;;;;;;;;;79600;265;3030905;-36
2023/03/16 07:38:11;;;;;;;8.40;6.00;;;;;;;;;;79645;264;3031774;-36
2023/03/16 07:40:53;;;;;;;9.50;6.20;;;;;;;;;;79626;264;3028684;-36
2023/03/16 07:43:34;;;;;;;8.80;6.00;;;;;;;;;;79648;264;3033529;-36
2023/03/16 07:46:15;;;;;;;9.40;6.40;;;;;;;;;;79633;253;3031472;-36
2023/03/16 07:48:57;;;;;;;8.70;5.70;;;;;;;;;;79616;264;3031285;-36
2023/03/16 07:51:35;;;;;;;9.00;6.20;;;;;;;;;;79622;264;3028090;-36
2023/03/16 07:54:18;;;;;;;9.00;5.90;;;;;;;;;;79665;264;3027971;-36
2023/03/16 07:57:00;;;;;;;8.60;6.10;;;;;;;;;;79661;264;3031374;-35
2023/03/16 07:59:41;;;;;;;8.70;6.10;;;;;;;;;;79684;264;3031951;-35
2023/03/16 08:02:24;;;;;;;8.70;6.00;;;;;;;;;;79626;264;3027978;-35
2023/03/16 08:05:11;;;;;;;8.60;5.90;;;;;;;;;;79671;264;3028265;-36
2023/03/16 08:07:56;;;;;;;8.20;6.00;;;;;;;;;;79652;264;3031064;-36
2023/03/16 08:10:33;;;;;;;9.40;6.20;;;;;;;;;;79640;264;3031221;-36
2023/03/16 08:13:12;;;;;;;9.20;5.90;;;;;;;;;;79638;264;3028126;-36
2023/03/16 08:15:57;;;;;;;9.20;6.10;;;;;;;;;;79671;264;3027851;-36
2023/03/16 08:18:35;;;;;;;9.00;6.20;;;;;;;;;;79663;264;3031266;-36
2023/03/16 08:21:14;;;;;;;9.20;6.30;;;;;;;;;;79632;264;3032041;-36
2023/03/16 08:23:53;;;;;;;9.70;6.40;;;;;;;;;;79635;264;3028091;-36
2023/03/16 08:26:31;;;;;;;9.60;6.30;;;;;;;;;;79657;264;3027700;-37
2023/03/16 08:29:12;;;;;;;8.80;6.20;;;;;;;;;;79678;264;3030873;-37
2023/03/16 08:31:48;;;;;;;9.90;6.30;;;;;;;;;;79620;264;3031569;-37
2023/03/16 08:34:25;;;;;;;9.40;6.40;;;;;;;;;;79591;264;3035761;-37
2023/03/16 08:37:03;;;;;;;9.40;6.10;;;;;;;;;;79656;264;3027705;-37
2023/03/16 08:39:44;;;;;;;9.70;6.40;;;;;;;;;;79634;265;3030826;-37
2023/03/16 08:42:20;;;;;;;9.30;6.20;;;;;;;;;;79604;264;3031474;-37
2023/03/16 08:44:59;;;;;;;9.10;6.30;;;;;;;;;;79633;264;3033428;-37
2023/03/16 08:47:48;;;;;;;11.00;6.90;;;;;;;;;;79671;264;3027821;-37
2023/03/16 08:50:30;;;;;;;8.90;6.20;;;;;;;;;;79688;264;3030914;-37
2023/03/16 08:53:12;;;;;;;10.20;6.30;;;;;;;;;;79618;264;3031895;-36
2023/03/16 08:55:52;;;;;;;9.40;6.10;;;;;;;;;;79653;264;3028681;-36
2023/03/16 08:58:40;;;;;;;9.80;6.50;;;;;;;;;;79639;264;3027921;-36
2023/03/16 09:01:24;;;;;;;9.70;7.20;;;;;;;;;;79666;264;3031318;-36
2023/03/16 09:04:02;;;;;;;8.40;6.00;;;;;;;;;;79531;264;3031944;-38
2023/03/16 09:06:39;;;;;;;9.70;6.70;;;;;;;;;;79613;264;3028076;-37
2023/03/16 09:09:22;;;;;;;10.00;6.70;;;;;;;;;;79642;264;3027908;-36
2023/03/16 09:12:07;;;;;;;11.00;6.50;;;;;;;;;;79605;264;3031109;-38
2023/03/16 09:14:44;;;;;;;10.00;6.70;;;;;;;;;;79552;264;3031452;-38
2023/03/16 09:17:29;;;;;;;10.40;6.50;;;;;;;;;;79628;256;3028297;-37
2023/03/16 09:20:15;;;;;;;9.70;6.90;;;;;;;;;;79627;264;3029155;-38
2023/03/16 09:23:09;;;;;;;11.20;6.40;;;;;;;;;;79548;264;3030554;-39
2023/03/16 09:25:52;;;;;;;9.00;6.60;;;;;;;;;;79598;265;3039229;-38
2023/03/16 09:28:30;;;;;;;9.30;6.20;;;;;;;;;;79649;264;3028473;-38
2023/03/16 09:31:25;;;;;;;9.80;6.40;;;;;;;;;;79621;264;3027917;-38
2023/03/16 09:34:06;;;;;;;8.80;6.30;;;;;;;;;;79589;264;3031258;-38
2023/03/16 09:36:46;;;;;;;8.70;6.20;;;;;;;;;;79616;264;3031950;-37
2023/03/16 09:39:26;;;;;;;9.40;6.50;;;;;;;;;;79564;265;3028516;-38
2023/03/16 09:42:19;;;;;;;10.40;6.30;;;;;;;;;;79633;264;3027151;-36
2023/03/16 09:45:13;;;;;;;9.60;6.00;;;;;;;;;;79587;264;3030533;-37
2023/03/16 09:48:09;;;;;;;8.80;5.90;;;;;;;;;;79583;264;3032606;-36
2023/03/16 09:51:00;;;;;;;8.70;5.80;;;;;;;;;;79615;264;3028781;-36
2023/03/16 09:53:40;;;;;;;8.60;5.60;;;;;;;;;;78723;265;3027350;-36
2023/03/16 09:56:29;;;;;;;8.70;6.00;;;;;;;;;;79533;264;3031558;-36
2023/03/16 09:59:17;;;;;;;8.70;6.00;;;;;;;;;;79619;264;3031727;-35
2023/03/16 10:02:16;;;;;;;7.80;5.30;;;;;;;;;;79626;264;3027927;-36
2023/03/16 10:05:05;;;;;;;7.90;5.30;;;;;;;;;;79575;264;3028081;-35
2023/03/16 10:07:58;;;;;;;8.30;5.50;;;;;;;;;;79598;265;3031519;-36
2023/03/16 10:10:58;;;;;;;8.30;5.30;;;;;;;;;;79584;265;3031804;-36
2023/03/16 10:13:44;;;;;;;7.90;5.00;;;;;;;;;;79569;264;3028976;-36
2023/03/16 10:16:25;;;;;;;8.00;5.10;;;;;;;;;;79569;264;3027826;-35
2023/03/16 10:19:22;;;;;;;8.30;5.40;;;;;;;;;;79610;264;3031952;-36
2023/03/16 10:22:09;;;;;;;8.00;5.20;;;;;;;;;;79604;264;3031862;-36
2023/03/16 10:25:07;;;;;;;7.80;5.00;;;;;;;;;;79597;272;3029392;-35
2023/03/16 10:27:51;;;;;;;7.40;5.20;;;;;;;;;;79632;280;3033818;-34
2023/03/16 10:30:31;;;;;;;8.70;5.40;;;;;;;;;;79639;264;3030394;-34
2023/03/16 10:33:21;;;;;;;7.70;5.00;;;;;;;;;;79622;264;3031293;-36
2023/03/16 10:36:09;;;;;;;7.40;5.10;;;;;;;;;;79618;264;3028418;-36
2023/03/16 10:39:06;;;;;;;7.80;4.80;;;;;;;;;;79642;264;3027945;-35
2023/03/16 10:41:57;;;;;;;8.10;4.90;;;;;;;;;;79663;264;3031149;-35
2023/03/16 10:44:46;;;;;;;8.40;4.90;;;;;;;;;;79587;265;3031546;-36
2023/03/16 10:47:28;;;;;;;7.40;4.50;;;;;;;;;;79578;264;3028585;-35
2023/03/16 10:50:24;;;;;;;7.20;4.60;;;;;;;;;;79642;264;3027632;-37
2023/03/16 10:53:05;;;;;;;7.50;4.50;;;;;;;;;;79652;264;3031486;-36
2023/03/16 10:55:50;;;;;;;7.50;4.80;;;;;;;;;;79636;264;3031257;-37
2023/03/16 10:58:32;;;;;;;7.90;4.80;;;;;;;;;;79719;264;3033717;-37
2023/03/16 11:01:30;;;;;;;6.60;4.60;;;;;;;;;;79653;264;3027702;-37
2023/03/16 11:04:15;;;;;;;6.90;4.10;;;;;;;;;;79649;264;3031060;-36
2023/03/16 11:07:03;;;;;;;7.40;4.60;;;;;;;;;;79627;264;3031689;-36
2023/03/16 11:09:43;;;;;;;7.10;4.20;;;;;;;;;;80466;268;3028697;-36
2023/03/16 11:12:31;;;;;;;6.40;4.00;;;;;;;;;;79574;264;3027570;-35
2023/03/16 11:15:22;;;;;;;6.30;3.90;;;;;;;;;;79661;264;3030435;-34
2023/03/16 11:18:06;;;;;;;6.60;3.90;;;;;;;;;;79555;265;3031156;-34
2023/03/16 11:20:51;;;;;;;7.30;3.90;;;;;;;;;;79641;264;3028612;-35
2023/03/16 11:23:47;;;;;;;6.90;3.60;;;;;;;;;;79610;264;3027318;-35
2023/03/16 11:26:32;;;;;;;6.80;4.30;;;;;;;;;;79634;264;3030608;-35
2023/03/16 11:29:31;;;;;;;6.70;3.80;;;;;;;;;;79733;264;3038098;-35
2023/03/16 11:32:19;;;;;;;6.40;3.80;;;;;;;;;;79793;264;3028246;-35
2023/03/16 11:35:18;;;;;;;6.70;3.80;;;;;;;;;;79609;264;3027283;-35
2023/03/16 11:38:11;;;;;;;6.50;3.70;;;;;;;;;;79651;276;3031111;-35
2023/03/16 11:41:02;;;;;;;6.60;3.90;;;;;;;;;;79589;265;3031430;-35
2023/03/16 11:43:53;;;;;;;6.50;3.80;;;;;;;;;;79698;264;3030193;-35
2023/03/16 11:46:39;;;;;;;6.20;3.40;;;;;;;;;;79602;264;3027552;-35
2023/03/16 11:49:46;;;;;;;6.90;3.70;;;;;;;;;;79573;264;3031049;-35
2023/03/16 11:52:44;;;;;;;6.00;3.40;;;;;;;;;;79626;264;3032402;-35
2023/03/16 11:55:33;;;;;;;6.10;3.40;;;;;;;;;;79638;264;3028439;-35
2023/03/16 11:58:35;;;;;;;6.30;3.20;;;;;;;;;;79615;264;3027773;-35
2023/03/16 12:01:21;;;;;;;6.20;3.40;;;;;;;;;;79685;264;3031018;-35
2023/03/16 12:04:23;;;;;;;6.10;3.50;;;;;;;;;;79681;264;3031782;-35
2023/03/16 12:07:38;;;;;;;6.00;3.50;;;;;;;;;;79677;264;3030783;-35
2023/03/16 12:10:36;;;;;;;6.70;3.60;;;;;;;;;;79761;264;3035022;-35
2023/03/16 12:13:32;;;;;;;7.00;3.60;;;;;;;;;;79675;264;3031981;-35
2023/03/16 12:16:18;;;;;;;6.50;3.80;;;;;;;;;;79637;264;3031849;-35
2023/03/16 12:19:11;;;;;;;6.50;3.70;;;;;;;;;;79573;264;3029195;-34
2023/03/16 12:22:00;;;;;;;6.20;3.30;;;;;;;;;;79647;264;3027565;-37
2023/03/16 12:24:42;;;;;;;6.00;3.20;;;;;;;;;;79601;264;3030846;-36
2023/03/16 12:27:24;;;;;;;6.30;3.60;;;;;;;;;;79560;264;3031633;-36
2023/03/16 12:30:24;;;;;;;6.30;3.60;;;;;;;;;;79579;264;3029027;-36
2023/03/16 12:33:20;;;;;;;6.40;3.40;;;;;;;;;;79628;264;3027162;-36
2023/03/16 12:36:08;;;;;;;6.50;3.10;;;;;;;;;;79587;265;3031165;-36
2023/03/16 12:39:14;;;;;;;6.10;3.30;;;;;;;;;;79599;264;3032276;-37
2023/03/16 12:41:58;;;;;;;;;;;;;;;;;;79629;264;3028454;-37
2023/03/16 12:44:44;;;;;;;6.00;3.20;;;;;;;;;;79619;264;3027872;-36
2023/03/16 12:47:36;;;;;;;6.30;3.10;;;;;;;;;;79578;264;3030454;-37
2023/03/16 12:50:19;;;;;;;6.00;3.20;;;;;;;;;;79574;264;3032031;-37
2023/03/16 12:52:56;;;;;;;6.10;3.00;;;;;;;;;;79658;264;3028103;-37
2023/03/16 12:55:49;;;;;;;6.30;3.20;;;;;;;;;;79627;264;3027772;-35
2023/03/16 12:58:27;;;;;;;5.70;3.00;;;;;;;;;;79604;264;3031051;-33
2023/03/16 13:01:10;;;;;;;6.80;3.40;;;;;;;;;;79579;264;3031545;-36
2023/03/16 13:03:59;;;;;;;6.20;3.20;;;;;;;;;;79644;264;3029426;-35
2023/03/16 13:07:02;;;;;;;6.40;3.30;;;;;;;;;;79636;264;3027979;-37
2023/03/16 13:09:48;;;;;;;6.20;3.30;;;;;;;;;;79547;265;3030900;-36
2023/03/16 13:12:35;;;;;;;5.60;2.90;;;;;;;;;;79616;264;3031773;-35
2023/03/16 13:15:33;;;;;;;7.00;3.30;;;;;;;;;;79624;264;3029268;-35
2023/03/16 13:18:27;;;;;;;6.70;3.20;;;;;;;;;;79639;264;3027736;-35
2023/03/16 13:21:20;;;;;;;5.30;3.00;;;;;;;;;;79586;264;3030641;-36
2023/03/16 13:24:14;;;;;;;5.40;2.90;;;;;;;;;;79576;265;3031256;-36
2023/03/16 13:27:00;;;;;;;5.60;2.90;;;;;;;;;;79645;264;3027893;-36
2023/03/16 13:30:02;;;;;;;5.60;2.80;;;;;;;;;;79552;265;3027951;-34
2023/03/16 13:32:41;;;;;;;5.70;2.70;;;;;;;;;;79647;264;3030778;-35
2023/03/16 13:35:27;;;;;;;5.80;2.90;;;;;;;;;;79607;264;3031419;-34
2023/03/16 13:38:13;;;;;;;5.90;2.80;;;;;;;;;;79624;264;3028822;-36
2023/03/16 13:40:56;;;;;;;6.50;3.00;;;;;;;;;;79579;264;3027731;-35
2023/03/16 13:43:36;;;;;;;6.30;3.00;;;;;;;;;;79637;264;3031357;-34
2023/03/16 13:46:27;;;;;;;5.90;3.10;;;;;;;;;;79657;264;3031771;-34
2023/03/16 13:49:06;;;;;;;5.40;2.80;;;;;;;;;;79634;264;3028608;-34
2023/03/16 13:51:46;;;;;;;5.20;2.90;;;;;;;;;;79603;264;3027562;-35
2023/03/16 13:54:30;;;;;;;5.60;3.00;;;;;;;;;;79625;264;3031765;-34
2023/03/16 13:57:14;;;;;;;5.30;2.60;;;;;;;;;;79649;264;3032659;-34
2023/03/16 13:59:49;;;;;;;5.60;2.90;;;;;;;;;;79593;264;3028363;-34
2023/03/16 14:02:29;;;;;;;5.40;3.00;;;;;;;;;;79624;264;3027189;-34
2023/03/16 14:05:18;;;;;;;5.40;3.10;;;;;;;;;;79627;264;3031680;-34
2023/03/16 14:07:59;;;;;;;6.10;2.90;;;;;;;;;;79594;264;3031703;-34
2023/03/16 14:10:39;;;;;;;6.60;3.20;;;;;;;;;;79633;264;3028374;-34
2023/03/16 14:13:36;;;;;;;5.80;2.90;;;;;;;;;;79646;264;3034449;-34
2023/03/16 14:16:18;;;;;;;6.40;3.00;;;;;;;;;;79654;264;3029509;-34
2023/03/16 14:19:04;;;;;;;4.80;2.60;;;;;;;;;;79654;264;3034500;-34
2023/03/16 14:21:46;;;;;;;5.80;2.80;;;;;;;;;;79566;264;3028608;-34
2023/03/16 14:24:32;;;;;;;5.20;2.80;;;;;;;;;;79639;264;3028728;-34
2023/03/16 14:27:19;;;;;;;;;;;;;;;;;;79664;264;3030391;-34
2023/03/16 14:30:01;;;;;;;5.50;2.60;;;;;;;;;;79591;257;3031510;-34
2023/03/16 14:32:38;;;;;;;5.80;2.70;;;;;;;;;;79614;264;3028398;-34
2023/03/16 14:35:20;;;;;;;5.40;2.90;;;;;;;;;;79635;264;3027892;-34
2023/03/16 14:37:56;;;;;;;5.50;2.90;;;;;;;;;;79635;264;3030965;-34
2023/03/16 14:40:34;;;;;;;6.50;3.10;;;;;;;;;;80341;264;3011342;-34
2023/03/16 14:43:19;;;;;;;5.40;2.90;;;;;;;;;;79621;264;3031578;-34
2023/03/16 14:45:57;;;;;;;5.50;2.70;;;;;;;;;;79617;264;3028370;-34
2023/03/16 14:48:35;;;;;;;5.70;2.80;;;;;;;;;;79682;264;3028572;-34
2023/03/16 14:51:16;;;;;;;5.50;2.80;;;;;;;;;;79621;264;3030375;-34
2023/03/16 14:53:53;;;;;;;5.30;2.60;;;;;;;;;;79613;264;3034124;-34
2023/03/16 14:56:35;;;;;;;5.50;3.00;;;;;;;;;;79635;264;3028723;-34
2023/03/16 14:59:11;;;;;;;6.30;2.80;;;;;;;;;;79634;268;3027409;-34
2023/03/16 15:01:48;;;;;;;4.90;2.70;;;;;;;;;;79625;264;3030631;-34
2023/03/16 15:04:28;;;;;;;5.50;2.80;;;;;;;;;;79645;264;3038019;-34
2023/03/16 15:07:13;;;;;;;5.40;2.40;;;;;;;;;;79653;264;3028806;-34
2023/03/16 15:09:52;;;;;;;5.30;2.50;;;;;;;;;;79569;265;3027152;-34
2023/03/16 15:12:33;;;;;;;5.10;2.50;;;;;;;;;;79639;264;3031034;-34
2023/03/16 15:15:19;;;;;;;5.20;2.40;;;;;;;;;;79655;253;3031647;-34
2023/03/16 15:17:56;;;;;;;5.10;2.50;;;;;;;;;;79645;264;3029439;-34
2023/03/16 15:20:39;;;;;;;5.30;2.40;;;;;;;;;;79648;264;3027999;-34
2023/03/16 15:23:20;;;;;;;5.40;2.40;;;;;;;;;;79632;264;3030810;-34
2023/03/16 15:26:01;;;;;;;5.80;2.70;;;;;;;;;;79633;264;3032055;-34
2023/03/16 15:28:37;;;;;;;5.10;2.30;;;;;;;;;;79628;265;3029798;-34
2023/03/16 15:31:17;;;;;;;5.00;2.20;;;;;;;;;;79613;264;3028416;-34
2023/03/16 15:33:58;;;;;;;5.00;2.30;;;;;;;;;;79617;264;3031069;-34
2023/03/16 15:36:33;;;;;;;5.40;2.40;;;;;;;;;;79661;264;3031904;-34
2023/03/16 15:39:20;;;;;;;5.60;2.40;;;;;;;;;;80365;264;3011286;-34
2023/03/16 15:41:59;;;;;;;4.70;2.20;;;;;;;;;;79661;264;3028806;-34
2023/03/16 15:44:35;;;;;;;5.60;2.60;;;;;;;;;;79602;264;3027786;-34
2023/03/16 15:47:18;;;;;;;5.50;2.50;;;;;;;;;;79591;264;3030730;-34
2023/03/16 15:49:54;;;;;;;5.30;2.40;;;;;;;;;;79642;264;3031661;-34
2023/03/16 15:52:35;;;;;;;5.70;2.50;;;;;;;;;;80334;264;3012596;-34
2023/03/16 15:55:19;;;;;;;4.70;2.40;;;;;;;;;;79629;264;3028278;-34
2023/03/16 15:58:01;;;;;;;5.50;2.30;;;;;;;;;;79625;264;3027643;-34